createdAt,value
2019-04-23T00:01:08.194Z,13.37
2019-04-23T00:03:37.380Z,14.20
2019-04-23T00:06:13.446Z,14.27
2019-04-23T00:08:41.980Z,13.27
2019-04-23T00:11:13.543Z,16.47
2019-04-23T00:13:45.442Z,12.17
2019-04-23T00:21:33.366Z,11.73
2019-04-23T00:24:18.543Z,15.27
2019-04-23T00:26:42.691Z,12.53
2019-04-23T00:29:13.608Z,12.43
2019-04-23T00:31:44.296Z,14.13
2019-04-23T00:34:16.029Z,12.00
2019-04-23T00:36:46.898Z,11.57
2019-04-23T00:39:17.071Z,15.73
2019-04-23T00:41:52.632Z,15.50
2019-04-23T00:44:25.056Z,11.17
2019-04-23T00:46:54.438Z,14.43
2019-04-23T00:49:27.580Z,14.10
2019-04-23T00:52:00.643Z,14.70
2019-04-23T00:54:34.274Z,15.87
2019-04-23T00:57:13.562Z,17.13
2019-04-23T00:59:39.193Z,12.00
2019-04-23T01:02:16.757Z,18.27
2019-04-23T01:04:46.073Z,10.77
2019-04-23T01:07:16.355Z,10.23
2019-04-23T01:10:03.146Z,14.90
2019-04-23T01:12:24.208Z,13.23
2019-04-23T01:14:48.720Z,12.77
2019-04-23T01:17:35.137Z,14.47
2019-04-23T01:20:06.369Z,14.70
2019-04-23T01:22:14.822Z,13.73
2019-04-23T01:25:07.337Z,11.63
2019-04-23T01:28:16.921Z,15.07
2019-04-23T01:33:29.609Z,15.20
2019-04-23T01:36:07.816Z,11.87
2019-04-23T01:38:29.303Z,15.20
2019-04-23T01:40:58.410Z,10.50
2019-04-23T01:43:30.785Z,12.07
2019-04-23T01:46:04.029Z,12.97
2019-04-23T01:48:38.653Z,11.80
2019-04-23T01:53:42.054Z,14.33
2019-04-23T01:56:11.435Z,12.30
2019-04-23T02:01:11.609Z,14.67
2019-04-23T02:03:52.366Z,13.50
2019-04-23T02:06:20.557Z,12.57
2019-04-23T02:08:51.925Z,10.37
2019-04-23T02:11:20.216Z,10.87
2019-04-23T02:14:03.729Z,10.90
2019-04-23T02:16:32.626Z,10.47
2019-04-23T02:19:02.858Z,11.40
2019-04-23T02:21:39.093Z,11.70
2019-04-23T02:24:12.433Z,11.73
2019-04-23T02:26:43.872Z,9.40
2019-04-23T02:29:28.631Z,11.73
2019-04-23T02:37:06.279Z,13.13
2019-04-23T02:39:39.359Z,12.07
2019-04-23T02:44:39.016Z,13.57
2019-04-23T02:57:18.730Z,13.70
2019-04-23T03:04:57.627Z,16.50
2019-04-23T03:07:41.144Z,13.30
2019-04-23T03:15:40.006Z,12.80
2019-04-23T03:21:19.121Z,9.90
2019-04-23T03:23:43.613Z,9.40
2019-04-23T03:26:26.337Z,12.73
2019-04-23T03:32:52.725Z,12.50
2019-04-23T03:37:03.973Z,12.93
2019-04-23T03:38:48.451Z,11.53
2019-04-23T03:41:39.226Z,9.50
2019-04-23T03:44:02.526Z,12.97
2019-04-23T03:49:07.670Z,10.97
2019-04-23T03:51:38.128Z,10.90
2019-04-23T03:56:44.769Z,10.30
2019-04-23T03:59:20.397Z,8.63
2019-04-23T04:02:03.860Z,10.20
2019-04-23T04:06:52.435Z,9.00
2019-04-23T04:09:36.993Z,9.50
2019-04-23T04:11:33.716Z,11.27
2019-04-23T04:16:53.832Z,10.47
2019-04-23T04:21:58.434Z,9.13
2019-04-23T04:24:34.410Z,8.17
2019-04-23T04:27:06.362Z,6.70
2019-04-23T04:29:39.618Z,9.10
2019-04-23T04:32:02.604Z,11.93
2019-04-23T04:39:42.227Z,8.13
2019-04-23T04:42:11.965Z,9.27
2019-04-23T04:44:54.707Z,13.17
2019-04-23T04:47:21.532Z,11.90
2019-04-23T04:49:59.894Z,10.03
2019-04-23T04:54:44.379Z,13.73
2019-04-23T04:57:30.610Z,9.27
2019-04-23T05:00:03.922Z,10.37
2019-04-23T05:05:09.086Z,11.83
2019-04-23T05:07:34.073Z,9.23
2019-04-23T05:10:29.677Z,17.40
2019-04-23T05:12:36.237Z,14.07
2019-04-23T05:18:08.108Z,7.57
2019-04-23T05:20:39.476Z,8.50
2019-04-23T05:23:16.464Z,11.47
2019-04-23T05:25:40.074Z,8.30
2019-04-23T05:30:46.095Z,10.47
2019-04-23T05:33:18.434Z,8.40
2019-04-23T05:36:09.278Z,16.13
2019-04-23T05:38:33.563Z,13.93
2019-04-23T05:40:53.625Z,10.47
2019-04-23T05:43:29.645Z,12.87
2019-04-23T05:45:55.882Z,15.40
2019-04-23T05:48:24.787Z,10.73
2019-04-23T05:51:06.108Z,13.83
2019-04-23T05:53:37.411Z,10.87
2019-04-23T05:56:02.218Z,9.70
2019-04-23T05:58:45.668Z,12.30
2019-04-23T06:01:47.725Z,9.33
2019-04-23T06:03:56.843Z,8.00
2019-04-23T06:06:36.113Z,9.73
2019-04-23T06:09:03.901Z,7.97
2019-04-23T06:11:41.015Z,8.60
2019-04-23T06:14:05.281Z,12.30
2019-04-23T06:16:41.578Z,12.53
2019-04-23T06:21:54.968Z,9.27
2019-04-23T06:24:24.428Z,12.47
2019-04-23T06:26:45.434Z,7.53
2019-04-23T06:29:20.423Z,10.27
2019-04-23T06:34:27.217Z,12.87
2019-04-23T06:36:52.639Z,6.70
2019-04-23T06:39:34.762Z,10.47
2019-04-23T06:42:03.863Z,18.07
2019-04-23T06:47:12.684Z,9.63
2019-04-23T06:52:18.410Z,10.27
2019-04-23T06:57:22.347Z,10.90
2019-04-23T06:59:55.117Z,9.70
2019-04-23T07:02:34.604Z,14.13
2019-04-23T07:05:03.338Z,12.70
2019-04-23T07:10:07.316Z,10.67
2019-04-23T07:17:39.516Z,9.43
2019-04-23T07:22:49.987Z,17.03
2019-04-23T07:27:56.888Z,10.00
2019-04-23T07:30:43.688Z,9.57
2019-04-23T07:33:04.027Z,12.00
2019-04-23T07:35:32.002Z,14.10
2019-04-23T07:38:12.831Z,11.10
2019-04-23T07:40:40.969Z,13.33
2019-04-23T07:43:22.814Z,13.17
2019-04-23T07:46:17.163Z,10.33
2019-04-23T07:48:34.193Z,13.90
2019-04-23T07:51:14.317Z,10.58
2019-04-23T07:53:49.704Z,12.43
2019-04-23T07:56:17.403Z,11.07
2019-04-23T07:58:44.793Z,8.80
2019-04-23T08:01:17.517Z,14.77
2019-04-23T08:06:21.555Z,12.27
2019-04-23T08:08:56.339Z,9.70
2019-04-23T08:16:42.530Z,15.18
2019-04-23T08:21:37.880Z,10.95
2019-04-23T08:24:38.927Z,14.95
2019-04-23T08:27:32.834Z,10.45
2019-04-23T08:30:00.701Z,17.37
2019-04-23T08:32:27.775Z,12.82
2019-04-23T08:35:06.422Z,9.83
2019-04-23T08:37:54.301Z,15.28
2019-04-23T08:40:15.141Z,11.68
2019-04-23T08:43:10.914Z,14.65
2019-04-23T08:45:28.584Z,14.85
2019-04-23T08:48:21.531Z,11.78
2019-04-23T08:50:57.951Z,13.75
2019-04-23T08:53:29.651Z,13.32
2019-04-23T08:56:02.285Z,12.25
2019-04-23T08:58:27.398Z,13.78
2019-04-23T09:08:27.854Z,11.85
2019-04-23T09:11:16.614Z,14.75
2019-04-23T09:16:12.022Z,9.13
2019-04-23T09:18:38.382Z,12.63
2019-04-23T09:21:15.567Z,10.30
2019-04-23T09:23:46.769Z,15.43
2019-04-23T09:26:14.923Z,10.30
2019-04-23T09:28:53.355Z,11.28
2019-04-23T09:32:00.737Z,11.93
2019-04-23T09:34:16.903Z,10.35
2019-04-23T09:37:10.453Z,12.73
2019-04-23T09:39:49.794Z,11.55
2019-04-23T09:42:53.036Z,10.30
2019-04-23T09:45:48.339Z,10.98
2019-04-23T09:48:06.714Z,13.08
2019-04-23T09:50:49.328Z,15.78
2019-04-23T09:56:01.196Z,10.03
2019-04-23T09:58:18.649Z,9.65
2019-04-23T10:01:20.783Z,14.85
2019-04-23T10:03:38.465Z,10.82
2019-04-23T10:06:04.315Z,13.90
2019-04-23T10:08:32.852Z,15.65
2019-04-23T10:10:59.663Z,10.38
2019-04-23T10:13:32.360Z,14.03
2019-04-23T10:16:04.327Z,10.00
2019-04-23T10:18:37.336Z,9.75
2019-04-23T10:21:07.890Z,9.85
2019-04-23T10:23:39.073Z,12.25
2019-04-23T10:26:11.891Z,17.65
2019-04-23T10:29:00.204Z,13.53
2019-04-23T10:31:31.570Z,12.88
2019-04-23T10:34:04.181Z,13.35
2019-04-23T10:36:36.162Z,10.70
2019-04-23T10:39:14.601Z,10.58
2019-04-23T10:41:42.501Z,10.68
2019-04-23T10:44:21.548Z,11.68
2019-04-23T10:47:43.495Z,8.25
2019-04-23T10:53:20.189Z,13.70
2019-04-23T10:55:46.816Z,10.32
2019-04-23T10:58:16.867Z,11.22
2019-04-23T11:01:04.236Z,12.98
2019-04-23T11:08:25.524Z,10.45
2019-04-23T11:11:03.822Z,7.83
2019-04-23T11:13:45.338Z,9.38
2019-04-23T11:26:31.837Z,7.17
2019-04-23T11:29:22.549Z,8.40
2019-04-23T11:31:35.266Z,7.85
2019-04-23T11:34:06.034Z,8.20
2019-04-23T11:39:05.670Z,7.25
2019-04-23T11:41:51.246Z,7.85
2019-04-23T11:44:20.600Z,7.12
2019-04-23T11:46:55.462Z,10.10
2019-04-23T11:49:38.251Z,8.38
2019-04-23T11:54:27.781Z,6.40
2019-04-23T11:59:40.853Z,10.20
2019-04-23T12:02:12.185Z,8.98
2019-04-23T12:07:57.651Z,7.47
2019-04-23T12:13:11.881Z,6.97
2019-04-23T12:15:47.925Z,8.35
2019-04-23T12:18:16.965Z,11.68
2019-04-23T12:20:57.087Z,6.72
2019-04-23T12:23:43.442Z,7.08
2019-04-23T12:26:03.415Z,9.28
2019-04-23T12:28:39.811Z,6.12
2019-04-23T12:31:11.885Z,9.50
2019-04-23T12:33:45.409Z,5.90
2019-04-23T12:36:37.944Z,7.15
2019-04-23T12:39:15.437Z,5.40
2019-04-23T12:41:45.245Z,4.67
2019-04-23T12:44:08.434Z,5.97
2019-04-23T12:46:45.732Z,8.05
2019-04-23T12:49:35.757Z,5.70
2019-04-23T12:51:49.611Z,6.80
2019-04-23T12:54:38.465Z,5.10
2019-04-23T12:57:09.830Z,5.75
2019-04-23T12:59:27.167Z,4.67
2019-04-23T13:02:16.110Z,4.17
2019-04-23T13:04:36.994Z,9.75
2019-04-23T13:07:09.129Z,4.33
2019-04-23T13:09:48.805Z,6.17
2019-04-23T13:12:25.646Z,5.10
2019-04-23T13:14:49.568Z,5.00
2019-04-23T13:22:23.363Z,4.15
2019-04-23T13:25:09.584Z,3.92
2019-04-23T13:27:53.765Z,5.17
2019-04-23T13:30:23.229Z,4.17
2019-04-23T13:35:40.466Z,3.70
2019-04-23T13:38:15.800Z,8.78
2019-04-23T13:40:43.942Z,2.98
2019-04-23T13:48:06.228Z,6.67
2019-04-23T13:51:14.641Z,3.67
2019-04-23T13:53:49.515Z,3.20
2019-04-23T13:56:46.517Z,5.03
2019-04-23T13:58:54.942Z,3.17
2019-04-23T14:01:28.809Z,3.25
2019-04-23T14:04:16.234Z,2.98
2019-04-23T14:09:00.150Z,2.92
2019-04-23T14:11:32.401Z,4.47
2019-04-23T14:14:38.464Z,5.28
2019-04-23T14:19:12.727Z,5.65
2019-04-23T14:21:44.457Z,3.42
2019-04-23T14:24:45.802Z,5.70
2019-04-23T14:26:48.574Z,3.72
2019-04-23T14:29:24.828Z,4.60
2019-04-23T14:32:04.563Z,2.20
2019-04-23T14:34:29.265Z,2.65
2019-04-23T14:39:37.371Z,4.58
2019-04-23T14:42:21.519Z,4.12
2019-04-23T14:44:41.072Z,4.95
2019-04-23T14:47:24.054Z,4.28
2019-04-23T14:50:26.217Z,3.50
2019-04-23T14:52:50.434Z,3.05
2019-04-23T14:55:40.202Z,7.17
2019-04-23T14:57:51.601Z,3.30
2019-04-23T15:02:50.037Z,6.67
2019-04-23T15:05:17.413Z,5.35
2019-04-23T15:07:50.782Z,4.50
2019-04-23T15:12:50.638Z,3.75
2019-04-23T15:17:56.060Z,3.27
2019-04-23T15:20:32.593Z,2.80
2019-04-23T15:23:25.452Z,3.35
2019-04-23T15:30:38.678Z,1.42
2019-04-23T15:40:53.904Z,3.33
2019-04-23T15:43:22.549Z,2.37
2019-04-23T15:46:02.885Z,1.32
2019-04-23T15:48:31.974Z,2.50
2019-04-23T15:51:12.673Z,3.15
2019-04-23T15:53:36.462Z,2.85
2019-04-23T15:56:16.426Z,4.05
2019-04-23T15:58:46.845Z,4.28
2019-04-23T16:01:29.383Z,4.85
2019-04-23T16:03:31.943Z,1.82
2019-04-23T16:06:02.954Z,2.60
2019-04-23T16:16:46.298Z,2.10
2019-04-23T16:19:31.548Z,2.50
2019-04-23T16:22:03.702Z,3.02
2019-04-23T16:24:24.903Z,1.42
2019-04-23T16:27:07.683Z,1.42
2019-04-23T16:29:55.494Z,3.90
2019-04-23T16:32:14.723Z,1.98
2019-04-23T16:34:58.397Z,4.42
2019-04-23T16:37:24.907Z,3.75
2019-04-23T16:40:08.108Z,5.17
2019-04-23T16:42:29.643Z,3.83
2019-04-23T16:47:43.261Z,3.72
2019-04-23T16:50:09.358Z,2.75
2019-04-23T16:52:42.201Z,6.15
2019-04-23T16:55:17.814Z,6.65
2019-04-23T16:58:11.907Z,3.83
2019-04-23T17:02:56.403Z,5.85
2019-04-23T17:05:23.453Z,3.42
2019-04-23T17:08:25.216Z,3.37
2019-04-23T17:10:33.598Z,4.15
2019-04-23T17:13:07.183Z,3.70
2019-04-23T17:15:37.792Z,4.42
2019-04-23T17:18:02.423Z,3.95
2019-04-23T17:20:44.078Z,2.87
2019-04-23T17:23:16.879Z,3.65
2019-04-23T17:25:45.144Z,4.55
2019-04-23T17:28:18.252Z,5.53
2019-04-23T17:30:52.757Z,7.10
2019-04-23T17:38:49.418Z,35.08
2019-04-23T17:41:31.200Z,5.80
2019-04-23T17:44:10.794Z,10.82
2019-04-23T17:46:34.289Z,5.28
2019-04-23T17:49:06.137Z,9.08
2019-04-23T17:51:35.917Z,6.58
2019-04-23T17:54:10.994Z,5.97
2019-04-23T17:59:28.241Z,6.37
2019-04-23T18:01:47.587Z,2.62
2019-04-23T18:06:58.428Z,5.15
2019-04-23T18:09:28.893Z,5.33
2019-04-23T18:12:01.042Z,8.23
2019-04-23T18:14:26.787Z,5.08
2019-04-23T18:17:11.456Z,5.17
2019-04-23T18:19:30.576Z,5.05
2019-04-23T18:22:24.529Z,4.25
2019-04-23T18:25:31.188Z,4.78
2019-04-23T18:27:51.468Z,2.75
2019-04-23T18:30:26.438Z,2.92
2019-04-23T18:35:35.246Z,4.92
2019-04-23T18:38:22.934Z,2.87
2019-04-23T18:40:59.199Z,5.37
2019-04-23T18:43:24.084Z,4.40
2019-04-23T18:45:55.581Z,2.55
2019-04-23T18:53:43.622Z,5.35
2019-04-23T19:01:10.743Z,6.55
2019-04-23T19:04:00.326Z,3.60
2019-04-23T19:06:32.885Z,4.55
2019-04-23T19:09:47.827Z,4.50
2019-04-23T19:12:26.831Z,2.90
2019-04-23T19:14:56.133Z,4.23
2019-04-23T19:19:55.355Z,7.57
2019-04-23T19:22:38.024Z,4.57
2019-04-23T19:25:02.243Z,3.12
2019-04-23T19:27:40.475Z,5.63
2019-04-23T19:30:13.516Z,3.25
2019-04-23T19:32:50.618Z,1.27
2019-04-23T19:35:23.916Z,2.90
2019-04-23T19:37:55.938Z,2.27
2019-04-23T19:40:28.352Z,3.83
2019-04-23T19:42:56.738Z,2.40
2019-04-23T19:45:34.953Z,3.90
2019-04-23T19:48:03.505Z,2.47
2019-04-23T19:50:32.951Z,1.83
2019-04-23T19:53:14.222Z,2.03
2019-04-23T19:55:53.672Z,2.53
2019-04-23T19:58:14.293Z,3.00
2019-04-23T20:01:02.304Z,2.00
2019-04-23T20:03:26.450Z,1.60
2019-04-23T20:05:53.912Z,1.70
2019-04-23T20:10:48.203Z,2.10
2019-04-23T20:13:33.082Z,1.57
2019-04-23T20:16:05.398Z,0.73
2019-04-23T20:18:42.046Z,1.40
2019-04-23T20:26:13.480Z,0.40
2019-04-23T20:29:01.974Z,1.20
2019-04-23T20:36:40.618Z,2.17
2019-04-23T20:39:15.667Z,1.57
2019-04-23T20:44:40.081Z,0.70
2019-04-23T20:47:06.790Z,1.67
2019-04-23T20:52:07.014Z,0.50
2019-04-23T20:57:43.038Z,1.13
2019-04-23T21:05:26.390Z,2.30
2019-04-23T21:10:35.926Z,0.33
2019-04-23T21:15:35.865Z,2.53
2019-04-23T21:18:06.484Z,0.87
2019-04-23T21:20:37.042Z,0.93
2019-04-23T21:23:19.431Z,0.40
2019-04-23T21:25:46.434Z,0.70
2019-04-23T21:28:17.555Z,2.17
2019-04-23T21:31:22.879Z,0.63
2019-04-23T21:33:29.653Z,0.57
2019-04-23T21:36:18.818Z,1.63
2019-04-23T21:39:29.356Z,1.10
2019-04-23T21:44:41.970Z,1.27
2019-04-23T21:47:08.911Z,0.90
2019-04-23T21:49:58.032Z,2.27
2019-04-23T21:52:16.420Z,1.07
2019-04-23T21:54:51.161Z,0.50
2019-04-23T21:57:24.773Z,1.40
2019-04-23T21:59:55.526Z,0.70
2019-04-23T22:02:28.615Z,1.50
2019-04-23T22:05:01.191Z,0.57
2019-04-23T22:07:50.175Z,0.80
2019-04-23T22:10:05.928Z,1.40
2019-04-23T22:12:46.950Z,0.70
2019-04-23T22:15:07.125Z,1.03
2019-04-23T22:17:47.726Z,3.53
2019-04-23T22:20:21.052Z,1.33
2019-04-23T22:23:01.488Z,1.73
2019-04-23T22:25:18.095Z,0.70
2019-04-23T22:30:22.714Z,1.77
2019-04-23T22:33:07.191Z,2.23
2019-04-23T22:35:24.453Z,0.43
2019-04-23T22:38:06.750Z,0.40
2019-04-23T22:40:25.364Z,3.07
2019-04-23T22:45:38.738Z,0.60
2019-04-23T22:48:06.918Z,0.87
2019-04-23T22:50:47.232Z,0.40
2019-04-23T22:53:08.690Z,1.20
2019-04-23T22:55:51.394Z,2.00
2019-04-23T22:58:16.202Z,1.23
2019-04-23T23:01:14.693Z,0.37
2019-04-23T23:03:33.724Z,1.00
2019-04-23T23:06:29.534Z,2.40
2019-04-23T23:08:55.170Z,0.97
2019-04-23T23:11:08.834Z,1.53
2019-04-23T23:14:01.064Z,0.40
2019-04-23T23:16:15.083Z,1.73
2019-04-23T23:18:57.170Z,0.40
2019-04-23T23:21:22.660Z,0.50
2019-04-23T23:23:54.720Z,0.83
2019-04-23T23:28:56.209Z,1.13
2019-04-23T23:31:34.688Z,2.37
2019-04-23T23:34:04.435Z,2.43
2019-04-23T23:36:38.895Z,0.70
2019-04-23T23:41:40.465Z,1.47
2019-04-23T23:44:28.486Z,2.07
2019-04-23T23:46:56.577Z,1.40
2019-04-23T23:49:20.504Z,1.43
2019-04-23T23:51:54.321Z,1.60
2019-04-23T23:54:13.605Z,1.00
2019-04-23T23:57:09.162Z,1.00
2019-04-23T23:59:26.929Z,1.77
